sensor_id;sensor_type;location;lat;lon;timestamp;P1;durP1;ratioP1;P2;durP2;ratioP2
39522;SDS011;25202;51.216;6.806;2024-01-11T00:02:04;5.47;;;3.10;;
39522;SDS011;25202;51.216;6.806;2024-01-11T00:04:30;3.35;;;2.55;;
39522;SDS011;25202;51.216;6.806;2024-01-11T00:06:55;3.25;;;2.55;;
39522;SDS011;25202;51.216;6.806;2024-01-11T00:09:21;3.42;;;2.60;;
39522;SDS011;25202;51.216;6.806;2024-01-11T00:11:46;3.72;;;2.70;;
39522;SDS011;25202;51.216;6.806;2024-01-11T00:14:12;3.17;;;2.60;;
39522;SDS011;25202;51.216;6.806;2024-01-11T00:16:37;3.50;;;2.70;;
39522;SDS011;25202;51.216;6.806;2024-01-11T00:19:03;5.97;;;3.13;;
39522;SDS011;25202;51.216;6.806;2024-01-11T00:21:28;3.55;;;2.67;;
39522;SDS011;25202;51.216;6.806;2024-01-11T00:23:54;2.90;;;2.47;;
39522;SDS011;25202;51.216;6.806;2024-01-11T00:26:19;3.55;;;2.65;;
39522;SDS011;25202;51.216;6.806;2024-01-11T00:28:45;3.67;;;2.70;;
39522;SDS011;25202;51.216;6.806;2024-01-11T00:31:10;3.75;;;2.92;;
39522;SDS011;25202;51.216;6.806;2024-01-11T00:33:36;3.35;;;2.50;;
39522;SDS011;25202;51.216;6.806;2024-01-11T00:36:01;4.97;;;2.90;;
39522;SDS011;25202;51.216;6.806;2024-01-11T00:38:27;2.88;;;2.40;;
39522;SDS011;25202;51.216;6.806;2024-01-11T00:40:52;3.80;;;2.67;;
39522;SDS011;25202;51.216;6.806;2024-01-11T00:43:18;4.53;;;3.33;;
39522;SDS011;25202;51.216;6.806;2024-01-11T00:45:45;3.92;;;3.03;;
39522;SDS011;25202;51.216;6.806;2024-01-11T00:48:11;3.67;;;2.88;;
39522;SDS011;25202;51.216;6.806;2024-01-11T00:50:37;4.18;;;3.10;;
39522;SDS011;25202;51.216;6.806;2024-01-11T00:53:02;2.97;;;2.67;;
39522;SDS011;25202;51.216;6.806;2024-01-11T00:55:28;4.43;;;3.13;;
39522;SDS011;25202;51.216;6.806;2024-01-11T00:57:54;3.83;;;3.10;;
39522;SDS011;25202;51.216;6.806;2024-01-11T01:00:19;3.58;;;3.00;;
39522;SDS011;25202;51.216;6.806;2024-01-11T01:02:45;3.50;;;2.78;;
39522;SDS011;25202;51.216;6.806;2024-01-11T01:05:10;3.60;;;2.83;;
39522;SDS011;25202;51.216;6.806;2024-01-11T01:07:36;4.43;;;3.03;;
39522;SDS011;25202;51.216;6.806;2024-01-11T01:10:01;3.53;;;2.70;;
39522;SDS011;25202;51.216;6.806;2024-01-11T01:12:27;4.05;;;3.25;;
39522;SDS011;25202;51.216;6.806;2024-01-11T01:14:53;3.95;;;3.20;;
39522;SDS011;25202;51.216;6.806;2024-01-11T01:17:19;4.38;;;3.10;;
39522;SDS011;25202;51.216;6.806;2024-01-11T01:19:45;3.60;;;2.65;;
39522;SDS011;25202;51.216;6.806;2024-01-11T01:22:10;3.63;;;3.08;;
39522;SDS011;25202;51.216;6.806;2024-01-11T01:24:35;3.83;;;3.30;;
39522;SDS011;25202;51.216;6.806;2024-01-11T01:27:01;3.65;;;3.05;;
39522;SDS011;25202;51.216;6.806;2024-01-11T01:29:26;3.80;;;3.10;;
39522;SDS011;25202;51.216;6.806;2024-01-11T01:31:52;3.58;;;3.03;;
39522;SDS011;25202;51.216;6.806;2024-01-11T01:34:18;4.00;;;3.58;;
39522;SDS011;25202;51.216;6.806;2024-01-11T01:36:44;4.25;;;3.20;;
39522;SDS011;25202;51.216;6.806;2024-01-11T01:39:09;4.15;;;3.25;;
39522;SDS011;25202;51.216;6.806;2024-01-11T01:41:35;4.18;;;3.28;;
39522;SDS011;25202;51.216;6.806;2024-01-11T01:44:00;4.05;;;3.15;;
39522;SDS011;25202;51.216;6.806;2024-01-11T01:46:26;3.90;;;3.17;;
39522;SDS011;25202;51.216;6.806;2024-01-11T01:48:53;3.80;;;3.20;;
39522;SDS011;25202;51.216;6.806;2024-01-11T01:51:20;3.95;;;3.28;;
39522;SDS011;25202;51.216;6.806;2024-01-11T01:53:45;4.70;;;3.47;;
39522;SDS011;25202;51.216;6.806;2024-01-11T01:56:11;4.10;;;3.00;;
39522;SDS011;25202;51.216;6.806;2024-01-11T01:58:37;4.30;;;3.20;;
39522;SDS011;25202;51.216;6.806;2024-01-11T02:01:03;4.07;;;3.50;;
39522;SDS011;25202;51.216;6.806;2024-01-11T02:03:28;4.18;;;3.47;;
39522;SDS011;25202;51.216;6.806;2024-01-11T02:05:55;4.68;;;3.45;;
39522;SDS011;25202;51.216;6.806;2024-01-11T02:08:21;4.55;;;3.58;;
39522;SDS011;25202;51.216;6.806;2024-01-11T02:10:47;4.18;;;3.35;;
39522;SDS011;25202;51.216;6.806;2024-01-11T02:13:13;3.53;;;2.95;;
39522;SDS011;25202;51.216;6.806;2024-01-11T02:15:39;3.88;;;2.92;;
39522;SDS011;25202;51.216;6.806;2024-01-11T02:18:04;3.65;;;3.25;;
39522;SDS011;25202;51.216;6.806;2024-01-11T02:20:30;4.57;;;3.58;;
39522;SDS011;25202;51.216;6.806;2024-01-11T02:22:57;3.63;;;2.90;;
39522;SDS011;25202;51.216;6.806;2024-01-11T02:25:25;5.28;;;3.70;;
39522;SDS011;25202;51.216;6.806;2024-01-11T02:27:51;3.88;;;3.28;;
39522;SDS011;25202;51.216;6.806;2024-01-11T02:30:16;4.95;;;3.70;;
39522;SDS011;25202;51.216;6.806;2024-01-11T02:32:45;5.22;;;3.50;;
39522;SDS011;25202;51.216;6.806;2024-01-11T02:35:12;5.15;;;3.75;;
39522;SDS011;25202;51.216;6.806;2024-01-11T02:37:38;4.75;;;3.60;;
39522;SDS011;25202;51.216;6.806;2024-01-11T02:40:05;4.47;;;3.67;;
39522;SDS011;25202;51.216;6.806;2024-01-11T02:42:32;4.90;;;3.50;;
39522;SDS011;25202;51.216;6.806;2024-01-11T02:44:58;4.75;;;3.90;;
39522;SDS011;25202;51.216;6.806;2024-01-11T02:47:23;4.05;;;3.55;;
39522;SDS011;25202;51.216;6.806;2024-01-11T02:49:49;4.25;;;3.28;;
39522;SDS011;25202;51.216;6.806;2024-01-11T02:52:15;4.43;;;3.47;;
39522;SDS011;25202;51.216;6.806;2024-01-11T02:54:40;4.35;;;3.70;;
39522;SDS011;25202;51.216;6.806;2024-01-11T02:57:05;4.90;;;3.85;;
39522;SDS011;25202;51.216;6.806;2024-01-11T02:59:31;4.75;;;3.63;;
39522;SDS011;25202;51.216;6.806;2024-01-11T03:01:56;4.75;;;3.92;;
39522;SDS011;25202;51.216;6.806;2024-01-11T03:04:22;4.88;;;3.80;;
39522;SDS011;25202;51.216;6.806;2024-01-11T03:06:47;5.03;;;3.78;;
39522;SDS011;25202;51.216;6.806;2024-01-11T03:09:13;4.38;;;3.67;;
39522;SDS011;25202;51.216;6.806;2024-01-11T03:11:38;4.45;;;3.70;;
39522;SDS011;25202;51.216;6.806;2024-01-11T03:14:04;5.65;;;4.13;;
39522;SDS011;25202;51.216;6.806;2024-01-11T03:16:29;5.35;;;4.00;;
39522;SDS011;25202;51.216;6.806;2024-01-11T03:18:55;4.45;;;3.47;;
39522;SDS011;25202;51.216;6.806;2024-01-11T03:21:20;4.57;;;3.95;;
39522;SDS011;25202;51.216;6.806;2024-01-11T03:23:46;4.95;;;3.85;;
39522;SDS011;25202;51.216;6.806;2024-01-11T03:26:12;6.47;;;3.65;;
39522;SDS011;25202;51.216;6.806;2024-01-11T03:28:39;4.80;;;4.10;;
39522;SDS011;25202;51.216;6.806;2024-01-11T03:31:04;4.53;;;3.63;;
39522;SDS011;25202;51.216;6.806;2024-01-11T03:33:29;4.10;;;3.20;;
39522;SDS011;25202;51.216;6.806;2024-01-11T03:35:55;4.30;;;3.40;;
39522;SDS011;25202;51.216;6.806;2024-01-11T03:38:21;6.30;;;4.03;;
39522;SDS011;25202;51.216;6.806;2024-01-11T03:40:46;3.60;;;2.78;;
39522;SDS011;25202;51.216;6.806;2024-01-11T03:43:12;4.75;;;3.70;;
39522;SDS011;25202;51.216;6.806;2024-01-11T03:45:38;5.38;;;4.10;;
39522;SDS011;25202;51.216;6.806;2024-01-11T03:48:03;4.72;;;3.75;;
39522;SDS011;25202;51.216;6.806;2024-01-11T03:50:29;4.93;;;3.80;;
39522;SDS011;25202;51.216;6.806;2024-01-11T03:52:54;5.68;;;3.88;;
39522;SDS011;25202;51.216;6.806;2024-01-11T03:55:20;5.85;;;3.95;;
39522;SDS011;25202;51.216;6.806;2024-01-11T03:57:45;4.50;;;3.70;;
39522;SDS011;25202;51.216;6.806;2024-01-11T04:00:11;4.30;;;3.53;;
39522;SDS011;25202;51.216;6.806;2024-01-11T04:02:37;4.97;;;3.42;;
39522;SDS011;25202;51.216;6.806;2024-01-11T04:05:02;3.80;;;3.03;;
39522;SDS011;25202;51.216;6.806;2024-01-11T04:07:28;4.93;;;3.65;;
39522;SDS011;25202;51.216;6.806;2024-01-11T04:09:54;3.50;;;2.97;;
39522;SDS011;25202;51.216;6.806;2024-01-11T04:12:19;4.40;;;3.72;;
39522;SDS011;25202;51.216;6.806;2024-01-11T04:14:44;4.07;;;3.53;;
39522;SDS011;25202;51.216;6.806;2024-01-11T04:17:10;4.95;;;3.75;;
39522;SDS011;25202;51.216;6.806;2024-01-11T04:19:36;4.40;;;3.65;;
39522;SDS011;25202;51.216;6.806;2024-01-11T04:22:02;5.50;;;4.20;;
39522;SDS011;25202;51.216;6.806;2024-01-11T04:24:27;4.30;;;3.40;;
39522;SDS011;25202;51.216;6.806;2024-01-11T04:26:53;6.93;;;3.58;;
39522;SDS011;25202;51.216;6.806;2024-01-11T04:29:18;4.45;;;3.60;;
39522;SDS011;25202;51.216;6.806;2024-01-11T04:31:43;4.60;;;3.65;;
39522;SDS011;25202;51.216;6.806;2024-01-11T04:34:09;3.97;;;3.55;;
39522;SDS011;25202;51.216;6.806;2024-01-11T04:36:37;5.10;;;3.83;;
39522;SDS011;25202;51.216;6.806;2024-01-11T04:39:02;4.85;;;3.53;;
39522;SDS011;25202;51.216;6.806;2024-01-11T04:41:28;5.53;;;3.97;;
39522;SDS011;25202;51.216;6.806;2024-01-11T04:43:53;5.72;;;3.85;;
39522;SDS011;25202;51.216;6.806;2024-01-11T04:46:20;4.60;;;3.70;;
39522;SDS011;25202;51.216;6.806;2024-01-11T04:48:48;4.57;;;3.70;;
39522;SDS011;25202;51.216;6.806;2024-01-11T04:51:14;5.03;;;4.00;;
39522;SDS011;25202;51.216;6.806;2024-01-11T04:53:40;4.20;;;3.42;;
39522;SDS011;25202;51.216;6.806;2024-01-11T04:56:06;4.55;;;3.65;;
39522;SDS011;25202;51.216;6.806;2024-01-11T04:58:32;4.05;;;3.25;;
39522;SDS011;25202;51.216;6.806;2024-01-11T05:00:58;4.97;;;3.60;;
39522;SDS011;25202;51.216;6.806;2024-01-11T05:03:24;4.25;;;3.58;;
39522;SDS011;25202;51.216;6.806;2024-01-11T05:05:50;4.50;;;3.53;;
39522;SDS011;25202;51.216;6.806;2024-01-11T05:08:15;4.60;;;3.67;;
39522;SDS011;25202;51.216;6.806;2024-01-11T05:10:40;4.43;;;3.60;;
39522;SDS011;25202;51.216;6.806;2024-01-11T05:13:06;5.20;;;3.97;;
39522;SDS011;25202;51.216;6.806;2024-01-11T05:15:31;4.65;;;3.63;;
39522;SDS011;25202;51.216;6.806;2024-01-11T05:17:57;4.85;;;3.72;;
39522;SDS011;25202;51.216;6.806;2024-01-11T05:20:23;5.07;;;3.60;;
39522;SDS011;25202;51.216;6.806;2024-01-11T05:22:49;5.05;;;3.97;;
39522;SDS011;25202;51.216;6.806;2024-01-11T05:25:14;4.90;;;3.50;;
39522;SDS011;25202;51.216;6.806;2024-01-11T05:27:40;4.75;;;3.78;;
39522;SDS011;25202;51.216;6.806;2024-01-11T05:30:05;4.30;;;3.67;;
39522;SDS011;25202;51.216;6.806;2024-01-11T05:32:31;4.45;;;3.38;;
39522;SDS011;25202;51.216;6.806;2024-01-11T05:34:57;4.55;;;3.78;;
39522;SDS011;25202;51.216;6.806;2024-01-11T05:37:22;4.70;;;3.58;;
39522;SDS011;25202;51.216;6.806;2024-01-11T05:39:48;4.72;;;3.40;;
39522;SDS011;25202;51.216;6.806;2024-01-11T05:42:13;4.68;;;3.38;;
39522;SDS011;25202;51.216;6.806;2024-01-11T05:44:39;4.72;;;3.85;;
39522;SDS011;25202;51.216;6.806;2024-01-11T05:47:04;4.65;;;3.42;;
39522;SDS011;25202;51.216;6.806;2024-01-11T05:49:30;4.35;;;3.42;;
39522;SDS011;25202;51.216;6.806;2024-01-11T05:51:55;5.03;;;3.75;;
39522;SDS011;25202;51.216;6.806;2024-01-11T05:54:21;4.45;;;3.53;;
39522;SDS011;25202;51.216;6.806;2024-01-11T05:56:46;4.55;;;3.60;;
39522;SDS011;25202;51.216;6.806;2024-01-11T05:59:12;4.88;;;3.50;;
39522;SDS011;25202;51.216;6.806;2024-01-11T06:01:41;3.88;;;3.28;;
39522;SDS011;25202;51.216;6.806;2024-01-11T06:04:07;4.75;;;3.70;;
39522;SDS011;25202;51.216;6.806;2024-01-11T06:06:33;4.07;;;3.22;;
39522;SDS011;25202;51.216;6.806;2024-01-11T06:08:58;4.40;;;3.40;;
39522;SDS011;25202;51.216;6.806;2024-01-11T06:11:24;4.13;;;3.22;;
39522;SDS011;25202;51.216;6.806;2024-01-11T06:13:49;4.20;;;3.17;;
39522;SDS011;25202;51.216;6.806;2024-01-11T06:16:15;4.13;;;3.45;;
39522;SDS011;25202;51.216;6.806;2024-01-11T06:18:40;3.85;;;3.13;;
39522;SDS011;25202;51.216;6.806;2024-01-11T06:21:06;4.85;;;3.60;;
39522;SDS011;25202;51.216;6.806;2024-01-11T06:23:31;4.70;;;3.72;;
39522;SDS011;25202;51.216;6.806;2024-01-11T06:25:57;4.55;;;3.50;;
39522;SDS011;25202;51.216;6.806;2024-01-11T06:28:22;3.83;;;3.30;;
39522;SDS011;25202;51.216;6.806;2024-01-11T06:30:48;4.60;;;3.50;;
39522;SDS011;25202;51.216;6.806;2024-01-11T06:33:13;4.07;;;3.42;;
39522;SDS011;25202;51.216;6.806;2024-01-11T06:35:39;4.47;;;3.40;;
39522;SDS011;25202;51.216;6.806;2024-01-11T06:38:05;3.85;;;2.95;;
39522;SDS011;25202;51.216;6.806;2024-01-11T06:40:30;4.65;;;3.42;;
39522;SDS011;25202;51.216;6.806;2024-01-11T06:42:56;4.40;;;3.28;;
39522;SDS011;25202;51.216;6.806;2024-01-11T06:45:21;4.07;;;3.42;;
39522;SDS011;25202;51.216;6.806;2024-01-11T06:47:46;4.93;;;3.78;;
39522;SDS011;25202;51.216;6.806;2024-01-11T06:50:14;5.88;;;3.53;;
39522;SDS011;25202;51.216;6.806;2024-01-11T06:52:39;4.75;;;3.63;;
39522;SDS011;25202;51.216;6.806;2024-01-11T06:55:05;4.20;;;3.17;;
39522;SDS011;25202;51.216;6.806;2024-01-11T06:57:31;5.07;;;3.60;;
39522;SDS011;25202;51.216;6.806;2024-01-11T06:59:56;5.68;;;3.38;;
39522;SDS011;25202;51.216;6.806;2024-01-11T07:02:21;4.30;;;3.50;;
39522;SDS011;25202;51.216;6.806;2024-01-11T07:04:47;4.30;;;3.30;;
39522;SDS011;25202;51.216;6.806;2024-01-11T07:07:12;4.40;;;3.30;;
39522;SDS011;25202;51.216;6.806;2024-01-11T07:09:38;4.05;;;3.13;;
39522;SDS011;25202;51.216;6.806;2024-01-11T07:12:04;4.28;;;3.20;;
39522;SDS011;25202;51.216;6.806;2024-01-11T07:14:30;3.58;;;2.95;;
39522;SDS011;25202;51.216;6.806;2024-01-11T07:16:56;4.00;;;3.28;;
39522;SDS011;25202;51.216;6.806;2024-01-11T07:19:21;4.35;;;3.45;;
39522;SDS011;25202;51.216;6.806;2024-01-11T07:21:47;3.97;;;3.10;;
39522;SDS011;25202;51.216;6.806;2024-01-11T07:24:12;4.10;;;3.15;;
39522;SDS011;25202;51.216;6.806;2024-01-11T07:26:40;5.30;;;3.40;;
39522;SDS011;25202;51.216;6.806;2024-01-11T07:29:06;4.07;;;3.10;;
39522;SDS011;25202;51.216;6.806;2024-01-11T07:31:32;4.40;;;3.08;;
39522;SDS011;25202;51.216;6.806;2024-01-11T07:33:57;3.75;;;2.95;;
39522;SDS011;25202;51.216;6.806;2024-01-11T07:36:23;4.53;;;3.30;;
39522;SDS011;25202;51.216;6.806;2024-01-11T07:38:48;3.75;;;2.72;;
39522;SDS011;25202;51.216;6.806;2024-01-11T07:41:14;3.85;;;2.67;;
39522;SDS011;25202;51.216;6.806;2024-01-11T07:43:42;3.65;;;2.70;;
39522;SDS011;25202;51.216;6.806;2024-01-11T07:46:08;3.90;;;2.97;;
39522;SDS011;25202;51.216;6.806;2024-01-11T07:48:34;4.25;;;2.72;;
39522;SDS011;25202;51.216;6.806;2024-01-11T07:51:00;3.15;;;2.60;;
39522;SDS011;25202;51.216;6.806;2024-01-11T07:53:29;4.63;;;3.13;;
39522;SDS011;25202;51.216;6.806;2024-01-11T07:55:57;4.18;;;3.10;;
39522;SDS011;25202;51.216;6.806;2024-01-11T07:58:22;3.72;;;2.72;;
39522;SDS011;25202;51.216;6.806;2024-01-11T08:00:51;3.60;;;2.53;;
39522;SDS011;25202;51.216;6.806;2024-01-11T08:03:17;4.38;;;2.88;;
39522;SDS011;25202;51.216;6.806;2024-01-11T08:05:42;4.80;;;2.97;;
39522;SDS011;25202;51.216;6.806;2024-01-11T08:08:11;4.35;;;2.83;;
39522;SDS011;25202;51.216;6.806;2024-01-11T08:10:36;3.33;;;2.83;;
39522;SDS011;25202;51.216;6.806;2024-01-11T08:13:02;4.80;;;3.40;;
39522;SDS011;25202;51.216;6.806;2024-01-11T08:15:28;4.20;;;3.05;;
39522;SDS011;25202;51.216;6.806;2024-01-11T08:17:53;4.72;;;2.83;;
39522;SDS011;25202;51.216;6.806;2024-01-11T08:20:19;4.00;;;2.95;;
39522;SDS011;25202;51.216;6.806;2024-01-11T08:22:44;4.25;;;3.13;;
39522;SDS011;25202;51.216;6.806;2024-01-11T08:25:11;3.85;;;2.90;;
39522;SDS011;25202;51.216;6.806;2024-01-11T08:27:38;3.92;;;2.85;;
39522;SDS011;25202;51.216;6.806;2024-01-11T08:30:04;6.10;;;2.88;;
39522;SDS011;25202;51.216;6.806;2024-01-11T08:32:30;3.17;;;2.60;;
39522;SDS011;25202;51.216;6.806;2024-01-11T08:34:58;6.70;;;2.53;;
39522;SDS011;25202;51.216;6.806;2024-01-11T08:37:24;4.15;;;2.85;;
39522;SDS011;25202;51.216;6.806;2024-01-11T08:39:49;4.93;;;2.90;;
39522;SDS011;25202;51.216;6.806;2024-01-11T08:42:15;4.35;;;2.45;;
39522;SDS011;25202;51.216;6.806;2024-01-11T08:44:41;5.70;;;2.60;;
39522;SDS011;25202;51.216;6.806;2024-01-11T08:47:09;6.90;;;2.75;;
39522;SDS011;25202;51.216;6.806;2024-01-11T08:49:38;3.42;;;2.30;;
39522;SDS011;25202;51.216;6.806;2024-01-11T08:52:04;3.85;;;2.88;;
39522;SDS011;25202;51.216;6.806;2024-01-11T08:54:30;5.07;;;3.10;;
39522;SDS011;25202;51.216;6.806;2024-01-11T08:56:58;3.78;;;2.65;;
39522;SDS011;25202;51.216;6.806;2024-01-11T08:59:23;3.97;;;2.50;;
39522;SDS011;25202;51.216;6.806;2024-01-11T09:01:50;4.97;;;2.50;;
39522;SDS011;25202;51.216;6.806;2024-01-11T09:04:15;2.90;;;2.42;;
39522;SDS011;25202;51.216;6.806;2024-01-11T09:06:42;4.57;;;2.40;;
39522;SDS011;25202;51.216;6.806;2024-01-11T09:09:08;5.32;;;2.58;;
39522;SDS011;25202;51.216;6.806;2024-01-11T09:11:35;5.30;;;2.53;;
39522;SDS011;25202;51.216;6.806;2024-01-11T09:14:01;3.03;;;2.40;;
39522;SDS011;25202;51.216;6.806;2024-01-11T09:16:28;4.70;;;3.10;;
39522;SDS011;25202;51.216;6.806;2024-01-11T09:18:53;3.35;;;2.40;;
39522;SDS011;25202;51.216;6.806;2024-01-11T09:21:19;3.53;;;2.65;;
39522;SDS011;25202;51.216;6.806;2024-01-11T09:23:44;3.65;;;2.50;;
39522;SDS011;25202;51.216;6.806;2024-01-11T09:26:10;3.47;;;2.30;;
39522;SDS011;25202;51.216;6.806;2024-01-11T09:28:36;3.72;;;2.05;;
39522;SDS011;25202;51.216;6.806;2024-01-11T09:31:01;2.78;;;2.15;;
39522;SDS011;25202;51.216;6.806;2024-01-11T09:33:27;3.75;;;2.42;;
39522;SDS011;25202;51.216;6.806;2024-01-11T09:35:54;3.72;;;2.33;;
39522;SDS011;25202;51.216;6.806;2024-01-11T09:38:21;3.13;;;2.42;;
39522;SDS011;25202;51.216;6.806;2024-01-11T09:40:49;3.92;;;2.60;;
39522;SDS011;25202;51.216;6.806;2024-01-11T09:43:25;3.03;;;2.40;;
39522;SDS011;25202;51.216;6.806;2024-01-11T09:45:51;3.67;;;2.40;;
39522;SDS011;25202;51.216;6.806;2024-01-11T09:48:17;2.67;;;2.20;;
39522;SDS011;25202;51.216;6.806;2024-01-11T09:50:43;2.80;;;2.10;;
39522;SDS011;25202;51.216;6.806;2024-01-11T09:53:08;3.53;;;2.42;;
39522;SDS011;25202;51.216;6.806;2024-01-11T09:55:34;3.70;;;2.42;;
39522;SDS011;25202;51.216;6.806;2024-01-11T09:58:01;3.28;;;2.08;;
39522;SDS011;25202;51.216;6.806;2024-01-11T10:00:27;3.17;;;2.17;;
39522;SDS011;25202;51.216;6.806;2024-01-11T10:02:53;3.15;;;2.35;;
39522;SDS011;25202;51.216;6.806;2024-01-11T10:05:18;4.05;;;2.65;;
39522;SDS011;25202;51.216;6.806;2024-01-11T10:07:44;3.75;;;2.65;;
39522;SDS011;25202;51.216;6.806;2024-01-11T10:10:11;3.25;;;1.98;;
39522;SDS011;25202;51.216;6.806;2024-01-11T10:12:36;2.90;;;2.20;;
39522;SDS011;25202;51.216;6.806;2024-01-11T10:15:06;2.85;;;2.08;;
39522;SDS011;25202;51.216;6.806;2024-01-11T10:17:34;3.05;;;2.15;;
39522;SDS011;25202;51.216;6.806;2024-01-11T10:20:06;3.20;;;2.08;;
39522;SDS011;25202;51.216;6.806;2024-01-11T10:22:35;3.15;;;2.10;;
39522;SDS011;25202;51.216;6.806;2024-01-11T10:25:08;2.83;;;2.30;;
39522;SDS011;25202;51.216;6.806;2024-01-11T10:27:36;3.55;;;2.58;;
39522;SDS011;25202;51.216;6.806;2024-01-11T10:30:02;2.50;;;2.03;;
39522;SDS011;25202;51.216;6.806;2024-01-11T10:32:28;2.83;;;2.13;;
39522;SDS011;25202;51.216;6.806;2024-01-11T10:34:53;2.85;;;2.30;;
39522;SDS011;25202;51.216;6.806;2024-01-11T10:37:20;2.40;;;1.77;;
39522;SDS011;25202;51.216;6.806;2024-01-11T10:39:46;2.38;;;1.70;;
39522;SDS011;25202;51.216;6.806;2024-01-11T10:42:13;2.72;;;1.92;;
39522;SDS011;25202;51.216;6.806;2024-01-11T10:44:40;3.92;;;2.10;;
39522;SDS011;25202;51.216;6.806;2024-01-11T10:47:11;3.53;;;2.10;;
39522;SDS011;25202;51.216;6.806;2024-01-11T10:49:39;2.25;;;1.77;;
39522;SDS011;25202;51.216;6.806;2024-01-11T10:52:05;2.72;;;2.00;;
39522;SDS011;25202;51.216;6.806;2024-01-11T10:54:33;2.42;;;1.92;;
39522;SDS011;25202;51.216;6.806;2024-01-11T10:56:59;2.72;;;2.03;;
39522;SDS011;25202;51.216;6.806;2024-01-11T10:59:26;2.65;;;1.80;;
39522;SDS011;25202;51.216;6.806;2024-01-11T11:01:55;2.05;;;1.73;;
39522;SDS011;25202;51.216;6.806;2024-01-11T11:04:23;3.38;;;1.85;;
39522;SDS011;25202;51.216;6.806;2024-01-11T11:06:54;2.28;;;1.70;;
39522;SDS011;25202;51.216;6.806;2024-01-11T11:09:24;4.93;;;1.98;;
39522;SDS011;25202;51.216;6.806;2024-01-11T11:11:50;6.38;;;2.40;;
39522;SDS011;25202;51.216;6.806;2024-01-11T11:14:19;7.63;;;2.05;;
39522;SDS011;25202;51.216;6.806;2024-01-11T11:16:45;4.47;;;2.33;;
39522;SDS011;25202;51.216;6.806;2024-01-11T11:19:11;4.72;;;2.08;;
39522;SDS011;25202;51.216;6.806;2024-01-11T11:21:44;4.10;;;1.85;;
39522;SDS011;25202;51.216;6.806;2024-01-11T11:24:10;3.63;;;1.92;;
39522;SDS011;25202;51.216;6.806;2024-01-11T11:26:36;4.32;;;2.00;;
39522;SDS011;25202;51.216;6.806;2024-01-11T11:29:02;2.83;;;1.90;;
39522;SDS011;25202;51.216;6.806;2024-01-11T11:31:35;2.30;;;1.85;;
39522;SDS011;25202;51.216;6.806;2024-01-11T11:34:01;3.17;;;2.30;;
39522;SDS011;25202;51.216;6.806;2024-01-11T11:36:29;3.28;;;2.03;;
39522;SDS011;25202;51.216;6.806;2024-01-11T11:38:54;2.30;;;1.67;;
39522;SDS011;25202;51.216;6.806;2024-01-11T11:41:25;2.75;;;2.00;;
39522;SDS011;25202;51.216;6.806;2024-01-11T11:43:51;5.10;;;1.85;;
39522;SDS011;25202;51.216;6.806;2024-01-11T11:46:16;5.22;;;1.90;;
39522;SDS011;25202;51.216;6.806;2024-01-11T11:48:48;4.50;;;1.80;;
39522;SDS011;25202;51.216;6.806;2024-01-11T11:51:16;3.90;;;1.77;;
39522;SDS011;25202;51.216;6.806;2024-01-11T11:53:43;2.95;;;2.05;;
39522;SDS011;25202;51.216;6.806;2024-01-11T11:56:09;2.72;;;1.85;;
39522;SDS011;25202;51.216;6.806;2024-01-11T11:58:35;4.15;;;1.55;;
39522;SDS011;25202;51.216;6.806;2024-01-11T12:01:01;2.47;;;1.77;;
39522;SDS011;25202;51.216;6.806;2024-01-11T12:03:31;4.70;;;2.03;;
39522;SDS011;25202;51.216;6.806;2024-01-11T12:06:04;4.95;;;1.85;;
39522;SDS011;25202;51.216;6.806;2024-01-11T12:08:33;3.97;;;1.90;;
39522;SDS011;25202;51.216;6.806;2024-01-11T12:10:58;4.45;;;1.88;;
39522;SDS011;25202;51.216;6.806;2024-01-11T12:13:24;3.35;;;1.98;;
39522;SDS011;25202;51.216;6.806;2024-01-11T12:15:50;3.92;;;1.80;;
39522;SDS011;25202;51.216;6.806;2024-01-11T12:18:15;3.55;;;1.80;;
39522;SDS011;25202;51.216;6.806;2024-01-11T12:20:41;4.05;;;1.80;;
39522;SDS011;25202;51.216;6.806;2024-01-11T12:23:06;2.28;;;1.48;;
39522;SDS011;25202;51.216;6.806;2024-01-11T12:25:32;2.72;;;1.60;;
39522;SDS011;25202;51.216;6.806;2024-01-11T12:27:57;2.80;;;1.90;;
39522;SDS011;25202;51.216;6.806;2024-01-11T12:30:23;2.95;;;1.90;;
39522;SDS011;25202;51.216;6.806;2024-01-11T12:32:55;2.72;;;1.83;;
39522;SDS011;25202;51.216;6.806;2024-01-11T12:35:21;3.42;;;1.70;;
39522;SDS011;25202;51.216;6.806;2024-01-11T12:38:00;4.32;;;1.77;;
39522;SDS011;25202;51.216;6.806;2024-01-11T12:40:27;2.95;;;1.75;;
39522;SDS011;25202;51.216;6.806;2024-01-11T12:42:54;2.08;;;1.65;;
39522;SDS011;25202;51.216;6.806;2024-01-11T12:45:19;2.45;;;1.63;;
39522;SDS011;25202;51.216;6.806;2024-01-11T12:47:45;2.17;;;1.58;;
39522;SDS011;25202;51.216;6.806;2024-01-11T12:50:11;2.40;;;1.70;;
39522;SDS011;25202;51.216;6.806;2024-01-11T12:52:37;2.42;;;1.77;;
39522;SDS011;25202;51.216;6.806;2024-01-11T12:55:03;2.60;;;1.63;;
39522;SDS011;25202;51.216;6.806;2024-01-11T12:57:30;2.35;;;1.70;;
39522;SDS011;25202;51.216;6.806;2024-01-11T12:59:55;3.22;;;2.10;;
39522;SDS011;25202;51.216;6.806;2024-01-11T13:02:35;3.17;;;1.77;;
39522;SDS011;25202;51.216;6.806;2024-01-11T13:05:01;2.97;;;1.80;;
39522;SDS011;25202;51.216;6.806;2024-01-11T13:07:27;3.45;;;1.80;;
39522;SDS011;25202;51.216;6.806;2024-01-11T13:09:55;6.18;;;1.58;;
39522;SDS011;25202;51.216;6.806;2024-01-11T13:12:21;2.90;;;1.73;;
39522;SDS011;25202;51.216;6.806;2024-01-11T13:14:47;4.55;;;1.90;;
39522;SDS011;25202;51.216;6.806;2024-01-11T13:17:13;3.40;;;1.92;;
39522;SDS011;25202;51.216;6.806;2024-01-11T13:19:39;2.78;;;1.65;;
39522;SDS011;25202;51.216;6.806;2024-01-11T13:22:04;3.05;;;1.77;;
39522;SDS011;25202;51.216;6.806;2024-01-11T13:24:30;3.35;;;1.55;;
39522;SDS011;25202;51.216;6.806;2024-01-11T13:26:56;2.40;;;1.95;;
39522;SDS011;25202;51.216;6.806;2024-01-11T13:29:21;2.47;;;1.65;;
39522;SDS011;25202;51.216;6.806;2024-01-11T13:31:47;2.05;;;1.38;;
39522;SDS011;25202;51.216;6.806;2024-01-11T13:34:12;2.33;;;1.70;;
39522;SDS011;25202;51.216;6.806;2024-01-11T13:36:38;2.55;;;1.70;;
39522;SDS011;25202;51.216;6.806;2024-01-11T13:39:04;2.28;;;1.50;;
39522;SDS011;25202;51.216;6.806;2024-01-11T13:41:29;2.33;;;1.70;;
39522;SDS011;25202;51.216;6.806;2024-01-11T13:43:55;2.08;;;1.40;;
39522;SDS011;25202;51.216;6.806;2024-01-11T13:46:20;1.52;;;1.33;;
39522;SDS011;25202;51.216;6.806;2024-01-11T13:48:46;2.63;;;1.65;;
39522;SDS011;25202;51.216;6.806;2024-01-11T13:51:12;2.95;;;1.73;;
39522;SDS011;25202;51.216;6.806;2024-01-11T13:53:40;2.08;;;1.55;;
39522;SDS011;25202;51.216;6.806;2024-01-11T13:56:05;1.88;;;1.50;;
39522;SDS011;25202;51.216;6.806;2024-01-11T13:58:31;3.45;;;1.83;;
39522;SDS011;25202;51.216;6.806;2024-01-11T14:00:56;2.08;;;1.45;;
39522;SDS011;25202;51.216;6.806;2024-01-11T14:03:22;3.08;;;1.40;;
39522;SDS011;25202;51.216;6.806;2024-01-11T14:05:49;2.40;;;1.40;;
39522;SDS011;25202;51.216;6.806;2024-01-11T14:08:14;2.13;;;1.35;;
39522;SDS011;25202;51.216;6.806;2024-01-11T14:10:39;2.17;;;1.35;;
39522;SDS011;25202;51.216;6.806;2024-01-11T14:13:05;1.90;;;1.30;;
39522;SDS011;25202;51.216;6.806;2024-01-11T14:15:33;2.17;;;1.35;;
39522;SDS011;25202;51.216;6.806;2024-01-11T14:17:59;2.80;;;1.52;;
39522;SDS011;25202;51.216;6.806;2024-01-11T14:20:25;1.50;;;1.20;;
39522;SDS011;25202;51.216;6.806;2024-01-11T14:22:50;2.92;;;1.70;;
39522;SDS011;25202;51.216;6.806;2024-01-11T14:25:16;3.80;;;1.73;;
39522;SDS011;25202;51.216;6.806;2024-01-11T14:27:42;3.60;;;1.42;;
39522;SDS011;25202;51.216;6.806;2024-01-11T14:30:09;2.25;;;1.50;;
39522;SDS011;25202;51.216;6.806;2024-01-11T14:32:36;4.25;;;1.50;;
39522;SDS011;25202;51.216;6.806;2024-01-11T14:35:01;4.30;;;1.50;;
39522;SDS011;25202;51.216;6.806;2024-01-11T14:37:30;5.00;;;1.60;;
39522;SDS011;25202;51.216;6.806;2024-01-11T14:39:56;3.03;;;1.50;;
39522;SDS011;25202;51.216;6.806;2024-01-11T14:42:24;3.10;;;1.75;;